TAF Text Data
IDs:
Format:
Raw Decoded Include METAR

Data at: 1635 UTC 20 May 2022

VVNB 201600Z 12006KT 9999 FEW039 27/24 Q1008 NOSIG

TAF VVNB 201100Z 2012/2112 08006KT 9000 SCT020
  TEMPO 2016/2022 4000 RA SCT010 FEW023TCU BKN035
  TEMPO 2106/2112 3000 +TSRA SCT010 FEW027CB BKN040